Gniezno, Poland
Current Conditions -  °F | °C
As of 6:30 AM on Sunday 26 Oct 2014 (Local Time) from EPPO Reporting Station
Haze Haze  
Wind Chill: 39°   Ceiling: 800
Heat Index: 39°   Visibility: 3mi
Dew Point: 37°   Wind: 3mph
Humidity: 93%   Direction: 160°SSE
Pressure: 30.3"   Gusts: NA
Location:  52.53°N, 17.61°E
Report Text: EPPO 260430Z 16003KT 5000 BR SCT006 BKN008 04/03 Q1026
Loading
Personal Weather Stations






























Interactive Weather Map
Tropical Storm Tracking
New forecast layout! Learn more

10-Day Weather Forecast

Advertisements
Track Severe Weather on mobile